createdAt,value
2018-04-26T00:12:13.078Z,8.20
2018-04-26T00:14:40.673Z,8.20
2018-04-26T00:17:08.227Z,8.30
2018-04-26T00:22:35.423Z,8.20
2018-04-26T00:25:02.949Z,8.20
2018-04-26T00:27:30.480Z,8.30
2018-04-26T00:29:58.035Z,8.40
2018-04-26T00:32:26.328Z,8.30
2018-04-26T00:34:53.861Z,8.30
2018-04-26T00:37:21.392Z,8.40
2018-04-26T00:39:52.123Z,8.40
2018-04-26T00:42:19.654Z,8.50
2018-04-26T00:44:47.180Z,8.50
2018-04-26T00:47:14.724Z,8.40
2018-04-26T00:49:42.255Z,8.40
2018-04-26T00:52:09.788Z,8.40
2018-04-26T00:54:37.307Z,8.40
2018-04-26T00:57:10.721Z,8.40
2018-04-26T00:59:39.098Z,8.30
2018-04-26T01:02:07.404Z,8.10
2018-04-26T01:04:34.933Z,8.10
2018-04-26T01:07:03.248Z,8.00
2018-04-26T01:09:30.777Z,8.00
2018-04-26T01:11:58.307Z,7.90
2018-04-26T01:14:25.832Z,7.90
2018-04-26T01:16:53.374Z,7.90
2018-04-26T01:28:01.587Z,7.70
2018-04-26T01:30:32.569Z,7.70
2018-04-26T01:33:00.106Z,7.70
2018-04-26T01:35:28.429Z,7.60
2018-04-26T01:37:55.960Z,7.60
2018-04-26T01:40:23.492Z,7.50
2018-04-26T01:42:51.039Z,7.40
2018-04-26T01:45:18.631Z,7.40
2018-04-26T01:47:46.932Z,7.40
2018-04-26T01:50:14.477Z,7.40
2018-04-26T01:52:41.996Z,7.40
2018-04-26T01:55:10.134Z,7.30
2018-04-26T01:57:37.672Z,7.30
2018-04-26T02:00:08.599Z,7.30
2018-04-26T02:02:36.127Z,7.30
2018-04-26T02:05:03.672Z,7.30
2018-04-26T02:07:31.217Z,7.30
2018-04-26T02:09:58.747Z,7.30
2018-04-26T02:12:26.278Z,7.30
2018-04-26T02:17:47.944Z,7.20
2018-04-26T02:20:15.487Z,7.20
2018-04-26T02:22:43.026Z,7.20
2018-04-26T02:25:10.777Z,7.10
2018-04-26T02:27:38.312Z,7.10
2018-04-26T02:30:09.256Z,7.10
2018-04-26T02:32:36.793Z,7.00
2018-04-26T02:35:04.340Z,7.00
2018-04-26T02:37:31.898Z,7.00
2018-04-26T02:40:00.194Z,6.80
2018-04-26T02:42:27.731Z,6.80
2018-04-26T02:44:55.288Z,6.90
2018-04-26T02:47:22.818Z,6.80
2018-04-26T02:49:50.361Z,6.90
2018-04-26T02:52:17.897Z,6.80
2018-04-26T02:54:45.432Z,6.80
2018-04-26T02:57:17.121Z,6.80
2018-04-26T02:59:44.660Z,6.80
2018-04-26T03:02:12.195Z,6.80
2018-04-26T03:04:39.744Z,6.70
2018-04-26T03:07:07.297Z,6.80
2018-04-26T03:09:34.845Z,6.80
2018-04-26T03:12:02.408Z,6.70
2018-04-26T03:17:23.167Z,6.70
2018-04-26T03:25:41.680Z,6.70
2018-04-26T03:28:09.215Z,6.70
2018-04-26T03:30:36.773Z,6.60
2018-04-26T03:33:04.316Z,6.60
2018-04-26T03:35:31.864Z,6.60
2018-04-26T03:37:59.416Z,6.60
2018-04-26T03:40:27.046Z,6.50
2018-04-26T03:42:54.580Z,6.50
2018-04-26T03:45:22.128Z,6.50
2018-04-26T03:47:49.672Z,6.50
2018-04-26T03:50:17.203Z,6.50
2018-04-26T03:52:48.144Z,6.70
2018-04-26T03:55:15.680Z,6.60
2018-04-26T03:57:43.216Z,6.70
2018-04-26T04:00:22.564Z,6.60
2018-04-26T04:03:01.879Z,6.60
2018-04-26T04:08:29.207Z,6.70
2018-04-26T04:10:56.769Z,6.70
2018-04-26T04:13:24.308Z,6.70
2018-04-26T07:18:26.390Z,8.20
2018-04-26T07:23:39.803Z,8.20
2018-04-26T07:26:10.618Z,8.20
2018-04-26T07:28:38.936Z,8.10
2018-04-26T07:31:06.485Z,8.10
2018-04-26T07:33:34.036Z,8.10
2018-04-26T07:36:01.579Z,8.00
2018-04-26T07:38:29.878Z,8.10
2018-04-26T07:40:57.421Z,8.00
2018-04-26T07:43:28.769Z,8.10
2018-04-26T07:45:56.316Z,8.00
2018-04-26T07:48:23.860Z,7.90
2018-04-26T07:50:51.392Z,8.00
2018-04-26T07:53:18.930Z,8.00
2018-04-26T07:55:46.458Z,7.90
2018-04-26T07:58:14.760Z,7.80
2018-04-26T08:00:45.439Z,7.80
2018-04-26T08:03:12.982Z,7.80
2018-04-26T08:05:40.525Z,8.00
2018-04-26T08:08:08.077Z,8.00
2018-04-26T08:10:36.330Z,8.10
2018-04-26T08:18:28.916Z,8.60
2018-04-26T09:24:53.394Z,10.70
2018-04-26T09:27:20.940Z,10.70
2018-04-26T09:29:48.476Z,10.70
2018-04-26T09:32:19.279Z,10.70
2018-04-26T09:34:46.859Z,10.80
2018-04-26T09:37:15.159Z,10.90
2018-04-26T09:39:42.707Z,10.90
2018-04-26T09:42:10.249Z,10.90
2018-04-26T09:44:38.576Z,10.50
2018-04-26T09:47:06.102Z,10.50
2018-04-26T09:49:33.631Z,10.60
2018-04-26T09:52:01.169Z,10.70
2018-04-26T09:54:28.713Z,10.90
2018-04-26T09:56:59.600Z,10.90
2018-04-26T09:59:27.148Z,11.10
2018-04-26T10:02:00.247Z,11.60
2018-04-26T10:04:27.792Z,12.30
2018-04-26T10:06:59.275Z,12.10
2018-04-26T10:09:26.804Z,12.50
2018-04-26T10:11:54.340Z,12.60
2018-04-26T10:17:16.908Z,13.50
2018-04-26T10:29:27.815Z,13.50
2018-04-26T10:31:55.347Z,13.00
2018-04-26T10:34:23.646Z,12.40
2018-04-26T10:36:51.191Z,12.40
2018-04-26T10:39:18.727Z,13.70
2018-04-26T10:41:46.257Z,14.00
2018-04-26T10:44:13.876Z,13.60
2018-04-26T10:46:41.368Z,14.00
2018-04-26T10:49:08.917Z,14.40
2018-04-26T10:51:39.645Z,15.20
2018-04-26T10:54:07.211Z,14.70
2018-04-26T10:56:34.756Z,14.50
2018-04-26T10:59:02.310Z,13.70
2018-04-26T11:01:29.863Z,15.00
2018-04-26T11:03:57.417Z,15.50
2018-04-26T11:06:25.736Z,15.00
2018-04-26T11:08:56.398Z,15.00
2018-04-26T11:11:23.972Z,14.60
2018-04-26T11:20:02.028Z,15.60
2018-04-26T12:14:34.608Z,16.60
2018-04-26T12:17:02.154Z,15.40
2018-04-26T12:22:30.412Z,14.20
2018-04-26T12:25:01.087Z,14.30
2018-04-26T12:27:28.624Z,13.90
2018-04-26T12:29:57.035Z,13.00
2018-04-26T12:32:24.616Z,13.00
2018-04-26T12:34:52.192Z,12.40
2018-04-26T12:37:19.824Z,11.40
2018-04-26T12:39:50.361Z,11.00
2018-04-26T12:42:17.982Z,10.80
2018-04-26T12:44:45.511Z,10.70
2018-04-26T12:47:13.119Z,10.80
2018-04-26T12:49:40.677Z,10.60
2018-04-26T12:52:08.341Z,10.50
2018-04-26T12:54:35.875Z,10.40
2018-04-26T12:57:06.628Z,10.30
2018-04-26T12:59:34.177Z,10.30
2018-04-26T13:02:02.497Z,10.70
2018-04-26T13:04:30.052Z,10.60
2018-04-26T13:06:57.598Z,10.90
2018-04-26T13:09:25.132Z,11.00
2018-04-26T13:11:52.686Z,11.40
2018-04-26T13:14:40.124Z,11.60
2018-04-26T13:17:08.574Z,11.50
2018-04-26T13:19:36.175Z,11.50
2018-04-26T13:24:58.082Z,14.20
2018-04-26T13:27:28.895Z,14.20
2018-04-26T13:29:56.415Z,14.60
2018-04-26T13:32:24.019Z,14.60
2018-04-26T13:34:51.569Z,13.90
2018-04-26T13:37:19.100Z,13.20
2018-04-26T13:39:46.743Z,12.70
2018-04-26T13:42:14.216Z,12.90
2018-04-26T13:44:41.770Z,14.10
2018-04-26T13:47:10.070Z,15.00
2018-04-26T13:49:37.618Z,15.00
2018-04-26T13:52:05.285Z,14.30
2018-04-26T13:54:32.796Z,13.50
2018-04-26T13:57:03.655Z,13.50
2018-04-26T13:59:31.204Z,14.60
2018-04-26T14:01:58.728Z,15.00
2018-04-26T14:04:26.287Z,15.00
2018-04-26T14:06:53.823Z,15.10
2018-04-26T14:09:21.399Z,15.40
2018-04-26T14:11:48.948Z,15.60
2018-04-26T14:17:09.419Z,16.00
2018-04-26T14:19:36.960Z,15.70
2018-04-26T14:28:00.321Z,14.70
2018-04-26T14:30:31.075Z,14.40
2018-04-26T14:32:58.617Z,14.70
2018-04-26T14:35:26.175Z,14.80
2018-04-26T14:37:53.736Z,13.80
2018-04-26T14:40:21.273Z,14.10
2018-04-26T14:42:49.689Z,14.50
2018-04-26T14:45:17.277Z,14.50
2018-04-26T14:47:44.831Z,13.70
2018-04-26T14:50:12.397Z,14.30
2018-04-26T14:52:53.145Z,14.20
2018-04-26T14:55:20.705Z,14.40
2018-04-26T14:57:48.243Z,14.80
2018-04-26T15:00:15.784Z,15.60
2018-04-26T15:02:43.330Z,15.20
2018-04-26T15:05:10.901Z,15.30
2018-04-26T15:07:38.463Z,14.90
2018-04-26T15:10:06.790Z,15.60
2018-04-26T15:12:34.463Z,15.50
2018-04-26T15:15:02.027Z,14.40
2018-04-26T16:24:27.939Z,14.50
2018-04-26T16:27:13.140Z,15.00
2018-04-26T16:29:52.528Z,14.70
2018-04-26T16:32:37.178Z,14.70
2018-04-26T16:35:20.550Z,14.80
2018-04-26T16:38:05.748Z,15.40
2018-04-26T16:40:33.493Z,14.80
2018-04-26T16:43:01.073Z,14.80
2018-04-26T16:45:28.662Z,14.50
2018-04-26T16:47:56.205Z,14.60
2018-04-26T16:50:23.835Z,14.60
2018-04-26T16:52:54.585Z,13.80
2018-04-26T16:55:22.143Z,13.30
2018-04-26T16:57:50.482Z,12.80
2018-04-26T17:00:18.041Z,12.80
2018-04-26T17:02:45.568Z,12.80
2018-04-26T17:05:13.133Z,12.70
2018-04-26T17:07:40.675Z,13.20
2018-04-26T17:10:09.043Z,13.70
2018-04-26T17:12:43.952Z,13.70
2018-04-26T17:23:54.864Z,12.30
2018-04-26T17:26:24.260Z,12.00
2018-04-26T17:28:52.729Z,12.40
2018-04-26T17:41:00.293Z,12.90
2018-04-26T17:43:27.868Z,12.50
2018-04-26T17:45:55.405Z,11.90
2018-04-26T17:48:23.677Z,11.90
2018-04-26T17:50:51.202Z,12.10
2018-04-26T17:53:18.829Z,11.70
2018-04-26T17:55:50.450Z,11.40
2018-04-26T17:58:18.057Z,11.40
2018-04-26T18:00:45.552Z,11.30
2018-04-26T18:03:13.095Z,11.30
2018-04-26T18:05:41.413Z,11.40
2018-04-26T18:08:08.949Z,11.40
2018-04-26T18:10:37.242Z,11.00
2018-04-26T18:13:07.959Z,10.90
2018-04-26T18:15:35.505Z,11.00
2018-04-26T18:18:03.831Z,10.80
2018-04-26T18:20:31.364Z,10.80
2018-04-26T18:22:58.949Z,10.80
2018-04-26T18:25:36.990Z,10.70
2018-04-26T18:28:04.584Z,10.70
2018-04-26T18:30:36.157Z,10.50
2018-04-26T18:33:03.754Z,10.50
2018-04-26T18:35:31.291Z,10.40
2018-04-26T18:37:58.835Z,10.40
2018-04-26T18:40:26.392Z,10.40
2018-04-26T18:42:53.933Z,10.40
2018-04-26T18:45:21.457Z,10.40
2018-04-26T18:47:48.992Z,10.40
2018-04-26T18:50:17.094Z,10.40
2018-04-26T18:52:44.644Z,10.40
2018-04-26T18:55:12.192Z,10.30
2018-04-26T18:57:43.060Z,10.40
2018-04-26T19:00:11.385Z,10.20
2018-04-26T19:02:38.958Z,10.20
2018-04-26T19:05:06.528Z,10.20
2018-04-26T19:07:34.125Z,10.10
2018-04-26T19:10:02.257Z,10.00
2018-04-26T19:12:29.852Z,10.00
2018-04-26T19:14:58.250Z,10.00
2018-04-26T19:17:26.484Z,9.90
2018-04-26T19:23:05.241Z,9.90
2018-04-26T20:20:41.284Z,8.80
2018-04-26T20:23:08.815Z,8.80
2018-04-26T20:25:39.647Z,8.70
2018-04-26T20:28:07.169Z,8.60
2018-04-26T20:30:34.723Z,8.60
2018-04-26T20:33:02.282Z,8.50
2018-04-26T20:35:29.828Z,8.60
2018-04-26T20:37:57.367Z,8.60
2018-04-26T20:40:24.928Z,8.60
2018-04-26T20:42:52.485Z,8.40
2018-04-26T20:45:20.045Z,8.30
2018-04-26T20:47:47.590Z,8.40
2018-04-26T20:50:15.134Z,8.40
2018-04-26T20:52:42.664Z,8.40
2018-04-26T20:55:13.528Z,8.30
2018-04-26T20:57:41.062Z,8.30
2018-04-26T21:00:08.616Z,8.20
2018-04-26T21:02:36.374Z,8.20
2018-04-26T21:05:03.909Z,8.20
2018-04-26T21:07:31.435Z,8.10
2018-04-26T21:09:58.976Z,8.10
2018-04-26T21:12:27.405Z,8.10
2018-04-26T21:20:42.200Z,8.10
2018-04-26T21:26:03.883Z,8.00
2018-04-26T21:28:34.769Z,8.00
2018-04-26T21:31:02.247Z,8.00
2018-04-26T21:33:29.794Z,7.80
2018-04-26T21:35:57.331Z,7.80
2018-04-26T21:38:24.876Z,7.70
2018-04-26T21:40:53.176Z,7.80
2018-04-26T21:43:20.717Z,7.80
2018-04-26T21:45:49.168Z,7.70
2018-04-26T21:48:16.716Z,7.70
2018-04-26T21:50:49.852Z,7.70
2018-04-26T21:53:26.456Z,7.70
2018-04-26T21:55:59.567Z,7.60
2018-04-26T21:58:32.849Z,7.50
2018-04-26T22:01:06.018Z,7.60
2018-04-26T22:03:38.126Z,7.60
2018-04-26T22:06:05.732Z,7.60
2018-04-26T22:08:33.240Z,7.60
2018-04-26T22:11:00.792Z,7.60
2018-04-26T22:13:43.958Z,7.60
2018-04-26T22:24:55.127Z,7.40
2018-04-26T22:27:22.671Z,7.40
2018-04-26T22:29:50.220Z,7.30
2018-04-26T22:32:18.713Z,7.30
2018-04-26T22:34:47.016Z,7.20
2018-04-26T22:37:14.547Z,7.20
2018-04-26T22:39:42.102Z,7.30
2018-04-26T22:42:13.551Z,7.20
2018-04-26T22:44:41.804Z,7.20
2018-04-26T22:47:09.346Z,7.10
2018-04-26T22:49:36.874Z,7.10
2018-04-26T22:52:04.406Z,7.10
2018-04-26T22:54:31.963Z,7.10
2018-04-26T22:57:00.929Z,7.00
2018-04-26T22:59:31.604Z,7.00
2018-04-26T23:01:59.152Z,7.00
2018-04-26T23:04:26.697Z,7.00
2018-04-26T23:06:54.230Z,7.00
2018-04-26T23:09:21.780Z,7.00
2018-04-26T23:11:49.302Z,7.00
2018-04-26T23:14:17.614Z,7.00
2018-04-26T23:16:45.193Z,7.00
2018-04-26T23:19:12.803Z,7.00
2018-04-26T23:24:33.866Z,7.00
2018-04-26T23:27:04.659Z,7.10
2018-04-26T23:29:32.198Z,7.20
2018-04-26T23:31:59.738Z,7.30
2018-04-26T23:34:27.274Z,7.30
2018-04-26T23:36:55.413Z,7.30
2018-04-26T23:39:23.729Z,7.30
2018-04-26T23:41:51.376Z,7.30
2018-04-26T23:44:18.920Z,7.40
2018-04-26T23:46:47.455Z,7.40
2018-04-26T23:49:14.996Z,7.50
2018-04-26T23:51:42.533Z,7.40
2018-04-26T23:54:10.059Z,7.40
2018-04-26T23:56:40.903Z,7.50
2018-04-26T23:59:08.453Z,7.40
